sensor_id;sensor_type;location;lat;lon;timestamp;P1;durP1;ratioP1;P2;durP2;ratioP2
64031;SDS011;50278;47.796;11.968;2023-05-07T00:01:22;4.85;;;2.95;;
64031;SDS011;50278;47.796;11.968;2023-05-07T00:03:48;5.03;;;2.50;;
64031;SDS011;50278;47.796;11.968;2023-05-07T00:06:14;5.90;;;3.30;;
64031;SDS011;50278;47.796;11.968;2023-05-07T00:08:39;4.55;;;3.20;;
64031;SDS011;50278;47.796;11.968;2023-05-07T00:11:05;3.67;;;2.95;;
64031;SDS011;50278;47.796;11.968;2023-05-07T00:13:30;4.00;;;2.70;;
64031;SDS011;50278;47.796;11.968;2023-05-07T00:16:00;9.13;;;3.60;;
64031;SDS011;50278;47.796;11.968;2023-05-07T00:18:29;4.07;;;2.60;;
64031;SDS011;50278;47.796;11.968;2023-05-07T00:20:55;2.95;;;2.63;;
64031;SDS011;50278;47.796;11.968;2023-05-07T00:23:21;5.03;;;2.78;;
64031;SDS011;50278;47.796;11.968;2023-05-07T00:25:47;3.28;;;2.80;;
64031;SDS011;50278;47.796;11.968;2023-05-07T00:28:12;3.88;;;2.75;;
64031;SDS011;50278;47.796;11.968;2023-05-07T00:30:38;4.38;;;2.97;;
64031;SDS011;50278;47.796;11.968;2023-05-07T00:33:04;4.28;;;3.30;;
64031;SDS011;50278;47.796;11.968;2023-05-07T00:35:29;4.05;;;2.65;;
64031;SDS011;50278;47.796;11.968;2023-05-07T00:37:55;3.55;;;2.83;;
64031;SDS011;50278;47.796;11.968;2023-05-07T00:40:20;3.80;;;2.88;;
64031;SDS011;50278;47.796;11.968;2023-05-07T00:42:46;2.78;;;2.55;;
64031;SDS011;50278;47.796;11.968;2023-05-07T00:45:15;7.10;;;3.10;;
64031;SDS011;50278;47.796;11.968;2023-05-07T00:47:41;4.03;;;2.92;;
64031;SDS011;50278;47.796;11.968;2023-05-07T00:50:08;4.85;;;3.30;;
64031;SDS011;50278;47.796;11.968;2023-05-07T00:52:36;3.55;;;2.58;;
64031;SDS011;50278;47.796;11.968;2023-05-07T00:55:04;4.68;;;3.00;;
64031;SDS011;50278;47.796;11.968;2023-05-07T00:57:37;3.60;;;2.80;;
64031;SDS011;50278;47.796;11.968;2023-05-07T01:00:06;4.50;;;2.80;;
64031;SDS011;50278;47.796;11.968;2023-05-07T01:02:35;5.35;;;3.00;;
64031;SDS011;50278;47.796;11.968;2023-05-07T01:05:01;3.60;;;2.70;;
64031;SDS011;50278;47.796;11.968;2023-05-07T01:07:31;5.40;;;3.35;;
64031;SDS011;50278;47.796;11.968;2023-05-07T01:09:57;6.95;;;3.40;;
64031;SDS011;50278;47.796;11.968;2023-05-07T01:12:24;3.88;;;3.47;;
64031;SDS011;50278;47.796;11.968;2023-05-07T01:14:50;3.92;;;3.05;;
64031;SDS011;50278;47.796;11.968;2023-05-07T01:17:17;3.42;;;3.13;;
64031;SDS011;50278;47.796;11.968;2023-05-07T01:19:44;4.75;;;2.78;;
64031;SDS011;50278;47.796;11.968;2023-05-07T01:22:10;5.03;;;3.10;;
64031;SDS011;50278;47.796;11.968;2023-05-07T01:24:46;4.50;;;3.30;;
64031;SDS011;50278;47.796;11.968;2023-05-07T01:27:13;5.88;;;3.42;;
64031;SDS011;50278;47.796;11.968;2023-05-07T01:29:39;7.47;;;3.40;;
64031;SDS011;50278;47.796;11.968;2023-05-07T01:32:05;6.90;;;2.95;;
64031;SDS011;50278;47.796;11.968;2023-05-07T01:34:32;3.33;;;2.92;;
64031;SDS011;50278;47.796;11.968;2023-05-07T01:36:59;4.10;;;2.60;;
64031;SDS011;50278;47.796;11.968;2023-05-07T01:39:25;3.58;;;2.50;;
64031;SDS011;50278;47.796;11.968;2023-05-07T01:41:53;7.20;;;3.40;;
64031;SDS011;50278;47.796;11.968;2023-05-07T01:44:24;2.90;;;2.38;;
64031;SDS011;50278;47.796;11.968;2023-05-07T01:46:51;3.78;;;2.80;;
64031;SDS011;50278;47.796;11.968;2023-05-07T01:49:17;4.00;;;2.75;;
64031;SDS011;50278;47.796;11.968;2023-05-07T01:51:43;5.25;;;2.50;;
64031;SDS011;50278;47.796;11.968;2023-05-07T01:54:09;5.35;;;2.60;;
64031;SDS011;50278;47.796;11.968;2023-05-07T01:56:35;5.40;;;3.00;;
64031;SDS011;50278;47.796;11.968;2023-05-07T01:59:01;3.67;;;3.22;;
64031;SDS011;50278;47.796;11.968;2023-05-07T02:01:27;5.25;;;3.20;;
64031;SDS011;50278;47.796;11.968;2023-05-07T02:03:53;4.00;;;3.30;;
64031;SDS011;50278;47.796;11.968;2023-05-07T02:06:23;3.42;;;2.60;;
64031;SDS011;50278;47.796;11.968;2023-05-07T02:08:51;5.18;;;2.92;;
64031;SDS011;50278;47.796;11.968;2023-05-07T02:11:17;5.35;;;3.28;;
64031;SDS011;50278;47.796;11.968;2023-05-07T02:13:42;4.43;;;3.20;;
64031;SDS011;50278;47.796;11.968;2023-05-07T02:16:08;6.45;;;2.80;;
64031;SDS011;50278;47.796;11.968;2023-05-07T02:18:33;7.40;;;3.08;;
64031;SDS011;50278;47.796;11.968;2023-05-07T02:20:59;5.57;;;2.75;;
64031;SDS011;50278;47.796;11.968;2023-05-07T02:23:24;2.53;;;2.28;;
64031;SDS011;50278;47.796;11.968;2023-05-07T02:25:50;6.43;;;3.15;;
64031;SDS011;50278;47.796;11.968;2023-05-07T02:28:16;6.63;;;3.40;;
64031;SDS011;50278;47.796;11.968;2023-05-07T02:30:48;2.85;;;2.55;;
64031;SDS011;50278;47.796;11.968;2023-05-07T02:33:14;8.65;;;3.03;;
64031;SDS011;50278;47.796;11.968;2023-05-07T02:35:40;3.78;;;3.35;;
64031;SDS011;50278;47.796;11.968;2023-05-07T02:38:06;5.85;;;3.17;;
64031;SDS011;50278;47.796;11.968;2023-05-07T02:40:33;3.70;;;2.80;;
64031;SDS011;50278;47.796;11.968;2023-05-07T02:42:59;5.03;;;3.25;;
64031;SDS011;50278;47.796;11.968;2023-05-07T02:45:24;3.53;;;2.88;;
64031;SDS011;50278;47.796;11.968;2023-05-07T02:47:52;5.72;;;3.33;;
64031;SDS011;50278;47.796;11.968;2023-05-07T02:50:18;4.40;;;3.33;;
64031;SDS011;50278;47.796;11.968;2023-05-07T02:52:44;3.95;;;3.33;;
64031;SDS011;50278;47.796;11.968;2023-05-07T02:55:09;6.35;;;3.67;;
64031;SDS011;50278;47.796;11.968;2023-05-07T02:57:35;3.90;;;3.50;;
64031;SDS011;50278;47.796;11.968;2023-05-07T03:00:09;4.47;;;3.35;;
64031;SDS011;50278;47.796;11.968;2023-05-07T03:02:41;6.97;;;3.65;;
64031;SDS011;50278;47.796;11.968;2023-05-07T03:05:07;4.60;;;3.75;;
64031;SDS011;50278;47.796;11.968;2023-05-07T03:07:33;6.00;;;3.50;;
64031;SDS011;50278;47.796;11.968;2023-05-07T03:10:00;4.78;;;3.20;;
64031;SDS011;50278;47.796;11.968;2023-05-07T03:12:25;4.18;;;3.13;;
64031;SDS011;50278;47.796;11.968;2023-05-07T03:14:51;3.55;;;3.25;;
64031;SDS011;50278;47.796;11.968;2023-05-07T03:17:16;3.53;;;3.05;;
64031;SDS011;50278;47.796;11.968;2023-05-07T03:19:42;3.92;;;2.75;;
64031;SDS011;50278;47.796;11.968;2023-05-07T03:22:07;3.90;;;3.10;;
64031;SDS011;50278;47.796;11.968;2023-05-07T03:24:33;3.42;;;2.97;;
64031;SDS011;50278;47.796;11.968;2023-05-07T03:26:59;4.10;;;2.72;;
64031;SDS011;50278;47.796;11.968;2023-05-07T03:29:26;7.20;;;3.00;;
64031;SDS011;50278;47.796;11.968;2023-05-07T03:31:52;4.00;;;3.30;;
64031;SDS011;50278;47.796;11.968;2023-05-07T03:34:17;5.00;;;3.65;;
64031;SDS011;50278;47.796;11.968;2023-05-07T03:36:51;4.38;;;3.88;;
64031;SDS011;50278;47.796;11.968;2023-05-07T03:39:17;8.48;;;3.33;;
64031;SDS011;50278;47.796;11.968;2023-05-07T03:41:43;4.05;;;3.03;;
64031;SDS011;50278;47.796;11.968;2023-05-07T03:44:09;3.33;;;2.63;;
64031;SDS011;50278;47.796;11.968;2023-05-07T03:46:34;3.70;;;3.33;;
64031;SDS011;50278;47.796;11.968;2023-05-07T03:49:00;7.40;;;3.58;;
64031;SDS011;50278;47.796;11.968;2023-05-07T03:51:26;3.95;;;3.40;;
64031;SDS011;50278;47.796;11.968;2023-05-07T03:53:52;3.60;;;3.30;;
64031;SDS011;50278;47.796;11.968;2023-05-07T03:56:20;6.53;;;3.90;;
64031;SDS011;50278;47.796;11.968;2023-05-07T03:58:48;5.80;;;3.88;;
64031;SDS011;50278;47.796;11.968;2023-05-07T04:01:14;8.27;;;3.88;;
64031;SDS011;50278;47.796;11.968;2023-05-07T04:03:40;4.13;;;3.72;;
64031;SDS011;50278;47.796;11.968;2023-05-07T04:06:06;5.25;;;4.53;;
64031;SDS011;50278;47.796;11.968;2023-05-07T04:08:33;5.65;;;3.80;;
64031;SDS011;50278;47.796;11.968;2023-05-07T04:10:59;4.25;;;3.78;;
64031;SDS011;50278;47.796;11.968;2023-05-07T04:13:29;5.90;;;3.92;;
64031;SDS011;50278;47.796;11.968;2023-05-07T04:15:56;7.22;;;4.80;;
64031;SDS011;50278;47.796;11.968;2023-05-07T04:18:23;5.65;;;4.50;;
64031;SDS011;50278;47.796;11.968;2023-05-07T04:20:48;6.00;;;4.72;;
64031;SDS011;50278;47.796;11.968;2023-05-07T04:23:15;7.35;;;4.60;;
64031;SDS011;50278;47.796;11.968;2023-05-07T04:25:40;6.72;;;4.25;;
64031;SDS011;50278;47.796;11.968;2023-05-07T04:28:14;4.38;;;3.95;;
64031;SDS011;50278;47.796;11.968;2023-05-07T04:30:41;4.03;;;3.10;;
64031;SDS011;50278;47.796;11.968;2023-05-07T04:33:07;3.90;;;2.90;;
64031;SDS011;50278;47.796;11.968;2023-05-07T04:35:33;3.15;;;2.78;;
64031;SDS011;50278;47.796;11.968;2023-05-07T04:37:59;4.00;;;2.92;;
64031;SDS011;50278;47.796;11.968;2023-05-07T04:40:25;3.50;;;2.80;;
64031;SDS011;50278;47.796;11.968;2023-05-07T04:42:50;5.60;;;3.20;;
64031;SDS011;50278;47.796;11.968;2023-05-07T04:45:16;5.75;;;3.33;;
64031;SDS011;50278;47.796;11.968;2023-05-07T04:47:44;4.60;;;3.08;;
64031;SDS011;50278;47.796;11.968;2023-05-07T04:50:10;4.03;;;3.20;;
64031;SDS011;50278;47.796;11.968;2023-05-07T04:52:36;5.03;;;2.70;;
64031;SDS011;50278;47.796;11.968;2023-05-07T04:55:03;4.18;;;2.80;;
64031;SDS011;50278;47.796;11.968;2023-05-07T04:57:34;3.67;;;2.60;;
64031;SDS011;50278;47.796;11.968;2023-05-07T04:59:59;4.95;;;3.00;;
64031;SDS011;50278;47.796;11.968;2023-05-07T05:02:25;3.83;;;3.00;;
64031;SDS011;50278;47.796;11.968;2023-05-07T05:04:50;4.35;;;3.20;;
64031;SDS011;50278;47.796;11.968;2023-05-07T05:07:17;4.05;;;3.17;;
64031;SDS011;50278;47.796;11.968;2023-05-07T05:09:42;4.43;;;3.15;;
64031;SDS011;50278;47.796;11.968;2023-05-07T05:12:08;4.10;;;3.30;;
64031;SDS011;50278;47.796;11.968;2023-05-07T05:14:35;3.38;;;2.83;;
64031;SDS011;50278;47.796;11.968;2023-05-07T05:17:01;4.13;;;2.55;;
64031;SDS011;50278;47.796;11.968;2023-05-07T05:19:26;3.25;;;2.95;;
64031;SDS011;50278;47.796;11.968;2023-05-07T05:21:52;4.65;;;2.90;;
64031;SDS011;50278;47.796;11.968;2023-05-07T05:24:17;4.38;;;2.83;;
64031;SDS011;50278;47.796;11.968;2023-05-07T05:26:43;5.80;;;2.85;;
64031;SDS011;50278;47.796;11.968;2023-05-07T05:29:09;2.85;;;2.55;;
64031;SDS011;50278;47.796;11.968;2023-05-07T05:31:38;3.50;;;2.65;;
64031;SDS011;50278;47.796;11.968;2023-05-07T05:34:04;5.90;;;3.78;;
64031;SDS011;50278;47.796;11.968;2023-05-07T05:36:30;5.00;;;3.70;;
64031;SDS011;50278;47.796;11.968;2023-05-07T05:38:56;5.35;;;4.85;;
64031;SDS011;50278;47.796;11.968;2023-05-07T05:41:22;7.70;;;5.00;;
64031;SDS011;50278;47.796;11.968;2023-05-07T05:43:49;3.83;;;3.20;;
64031;SDS011;50278;47.796;11.968;2023-05-07T05:46:15;5.82;;;3.22;;
64031;SDS011;50278;47.796;11.968;2023-05-07T05:48:41;4.25;;;3.30;;
64031;SDS011;50278;47.796;11.968;2023-05-07T05:51:07;3.42;;;2.45;;
64031;SDS011;50278;47.796;11.968;2023-05-07T05:53:32;3.92;;;3.22;;
64031;SDS011;50278;47.796;11.968;2023-05-07T05:55:58;10.95;;;4.00;;
64031;SDS011;50278;47.796;11.968;2023-05-07T05:58:24;3.80;;;3.13;;
64031;SDS011;50278;47.796;11.968;2023-05-07T06:00:56;3.83;;;3.42;;
64031;SDS011;50278;47.796;11.968;2023-05-07T06:03:24;4.20;;;3.38;;
64031;SDS011;50278;47.796;11.968;2023-05-07T06:05:50;4.53;;;3.13;;
64031;SDS011;50278;47.796;11.968;2023-05-07T06:08:17;5.47;;;3.50;;
64031;SDS011;50278;47.796;11.968;2023-05-07T06:10:43;4.40;;;3.30;;
64031;SDS011;50278;47.796;11.968;2023-05-07T06:13:12;3.88;;;3.45;;
64031;SDS011;50278;47.796;11.968;2023-05-07T06:15:57;5.40;;;3.50;;
64031;SDS011;50278;47.796;11.968;2023-05-07T06:18:29;4.72;;;3.22;;
64031;SDS011;50278;47.796;11.968;2023-05-07T06:20:54;4.03;;;3.65;;
64031;SDS011;50278;47.796;11.968;2023-05-07T06:25:52;4.78;;;3.78;;
64031;SDS011;50278;47.796;11.968;2023-05-07T06:28:21;5.80;;;4.20;;
64031;SDS011;50278;47.796;11.968;2023-05-07T06:30:47;8.35;;;4.03;;
64031;SDS011;50278;47.796;11.968;2023-05-07T06:33:14;5.80;;;3.40;;
64031;SDS011;50278;47.796;11.968;2023-05-07T06:35:40;5.75;;;3.13;;
64031;SDS011;50278;47.796;11.968;2023-05-07T06:38:06;4.25;;;3.35;;
64031;SDS011;50278;47.796;11.968;2023-05-07T06:40:31;3.53;;;2.70;;
64031;SDS011;50278;47.796;11.968;2023-05-07T06:42:59;5.35;;;2.88;;
64031;SDS011;50278;47.796;11.968;2023-05-07T06:45:35;4.18;;;3.70;;
64031;SDS011;50278;47.796;11.968;2023-05-07T06:48:00;4.00;;;3.33;;
64031;SDS011;50278;47.796;11.968;2023-05-07T06:50:30;4.13;;;3.10;;
64031;SDS011;50278;47.796;11.968;2023-05-07T06:52:56;3.28;;;2.97;;
64031;SDS011;50278;47.796;11.968;2023-05-07T06:55:22;3.85;;;3.28;;
64031;SDS011;50278;47.796;11.968;2023-05-07T06:57:48;4.20;;;3.75;;
64031;SDS011;50278;47.796;11.968;2023-05-07T07:00:14;4.95;;;3.83;;
64031;SDS011;50278;47.796;11.968;2023-05-07T07:02:46;3.97;;;3.50;;
64031;SDS011;50278;47.796;11.968;2023-05-07T07:05:14;5.03;;;3.40;;
64031;SDS011;50278;47.796;11.968;2023-05-07T07:07:40;3.95;;;3.03;;
64031;SDS011;50278;47.796;11.968;2023-05-07T07:10:06;4.63;;;2.85;;
64031;SDS011;50278;47.796;11.968;2023-05-07T07:12:33;4.03;;;3.33;;
64031;SDS011;50278;47.796;11.968;2023-05-07T07:14:59;4.53;;;3.08;;
64031;SDS011;50278;47.796;11.968;2023-05-07T07:17:25;4.45;;;3.35;;
64031;SDS011;50278;47.796;11.968;2023-05-07T07:19:51;4.50;;;2.70;;
64031;SDS011;50278;47.796;11.968;2023-05-07T07:22:17;6.75;;;3.38;;
64031;SDS011;50278;47.796;11.968;2023-05-07T07:24:42;3.00;;;2.58;;
64031;SDS011;50278;47.796;11.968;2023-05-07T07:27:10;3.53;;;2.35;;
64031;SDS011;50278;47.796;11.968;2023-05-07T07:29:35;3.65;;;2.90;;
64031;SDS011;50278;47.796;11.968;2023-05-07T07:32:01;3.92;;;2.53;;
64031;SDS011;50278;47.796;11.968;2023-05-07T07:34:27;2.75;;;2.35;;
64031;SDS011;50278;47.796;11.968;2023-05-07T07:36:53;2.70;;;2.17;;
64031;SDS011;50278;47.796;11.968;2023-05-07T07:39:19;2.45;;;2.17;;
64031;SDS011;50278;47.796;11.968;2023-05-07T07:41:46;2.72;;;2.30;;
64031;SDS011;50278;47.796;11.968;2023-05-07T07:44:13;4.50;;;2.60;;
64031;SDS011;50278;47.796;11.968;2023-05-07T07:46:40;3.60;;;2.42;;
64031;SDS011;50278;47.796;11.968;2023-05-07T07:49:06;3.58;;;2.17;;
64031;SDS011;50278;47.796;11.968;2023-05-07T07:51:31;2.80;;;2.35;;
64031;SDS011;50278;47.796;11.968;2023-05-07T07:53:58;4.30;;;2.42;;
64031;SDS011;50278;47.796;11.968;2023-05-07T07:56:24;3.83;;;2.67;;
64031;SDS011;50278;47.796;11.968;2023-05-07T07:58:50;2.88;;;2.50;;
64031;SDS011;50278;47.796;11.968;2023-05-07T08:01:16;4.97;;;2.35;;
64031;SDS011;50278;47.796;11.968;2023-05-07T08:03:44;4.32;;;2.55;;
64031;SDS011;50278;47.796;11.968;2023-05-07T08:06:11;4.53;;;2.40;;
64031;SDS011;50278;47.796;11.968;2023-05-07T08:08:36;3.17;;;2.05;;
64031;SDS011;50278;47.796;11.968;2023-05-07T08:11:02;3.33;;;1.98;;
64031;SDS011;50278;47.796;11.968;2023-05-07T08:13:31;3.55;;;2.05;;
64031;SDS011;50278;47.796;11.968;2023-05-07T08:15:57;4.22;;;1.77;;
64031;SDS011;50278;47.796;11.968;2023-05-07T08:18:23;4.03;;;1.95;;
64031;SDS011;50278;47.796;11.968;2023-05-07T08:20:50;3.60;;;2.05;;
64031;SDS011;50278;47.796;11.968;2023-05-07T08:23:20;3.25;;;2.47;;
64031;SDS011;50278;47.796;11.968;2023-05-07T08:25:46;3.92;;;2.35;;
64031;SDS011;50278;47.796;11.968;2023-05-07T08:28:14;2.97;;;2.00;;
64031;SDS011;50278;47.796;11.968;2023-05-07T08:30:40;3.15;;;1.80;;
64031;SDS011;50278;47.796;11.968;2023-05-07T08:33:06;4.05;;;1.80;;
64031;SDS011;50278;47.796;11.968;2023-05-07T08:35:33;2.25;;;1.63;;
64031;SDS011;50278;47.796;11.968;2023-05-07T08:37:59;1.90;;;1.50;;
64031;SDS011;50278;47.796;11.968;2023-05-07T08:40:25;2.75;;;1.45;;
64031;SDS011;50278;47.796;11.968;2023-05-07T08:42:53;2.13;;;1.70;;
64031;SDS011;50278;47.796;11.968;2023-05-07T08:45:19;2.30;;;1.30;;
64031;SDS011;50278;47.796;11.968;2023-05-07T08:47:58;2.28;;;1.50;;
64031;SDS011;50278;47.796;11.968;2023-05-07T08:52:56;2.33;;;1.67;;
64031;SDS011;50278;47.796;11.968;2023-05-07T08:55:22;2.22;;;1.55;;
64031;SDS011;50278;47.796;11.968;2023-05-07T08:57:49;3.70;;;1.40;;
64031;SDS011;50278;47.796;11.968;2023-05-07T09:00:16;3.35;;;1.73;;
64031;SDS011;50278;47.796;11.968;2023-05-07T09:02:47;2.58;;;1.63;;
64031;SDS011;50278;47.796;11.968;2023-05-07T09:05:13;5.63;;;1.50;;
64031;SDS011;50278;47.796;11.968;2023-05-07T09:07:38;2.08;;;1.55;;
64031;SDS011;50278;47.796;11.968;2023-05-07T09:10:06;2.30;;;1.63;;
64031;SDS011;50278;47.796;11.968;2023-05-07T09:12:34;4.07;;;2.03;;
64031;SDS011;50278;47.796;11.968;2023-05-07T09:15:02;1.80;;;1.58;;
64031;SDS011;50278;47.796;11.968;2023-05-07T09:17:29;2.60;;;2.20;;
64031;SDS011;50278;47.796;11.968;2023-05-07T09:19:54;7.22;;;2.65;;
64031;SDS011;50278;47.796;11.968;2023-05-07T09:22:20;4.78;;;2.00;;
64031;SDS011;50278;47.796;11.968;2023-05-07T09:24:56;2.30;;;1.83;;
64031;SDS011;50278;47.796;11.968;2023-05-07T09:27:24;1.63;;;1.52;;
64031;SDS011;50278;47.796;11.968;2023-05-07T09:29:51;4.68;;;1.63;;
64031;SDS011;50278;47.796;11.968;2023-05-07T09:32:17;3.10;;;1.92;;
64031;SDS011;50278;47.796;11.968;2023-05-07T09:34:43;3.80;;;1.77;;
64031;SDS011;50278;47.796;11.968;2023-05-07T09:37:10;5.05;;;1.88;;
64031;SDS011;50278;47.796;11.968;2023-05-07T09:39:48;3.08;;;1.58;;
64031;SDS011;50278;47.796;11.968;2023-05-07T09:42:22;2.92;;;1.70;;
64031;SDS011;50278;47.796;11.968;2023-05-07T09:44:49;3.05;;;1.83;;
64031;SDS011;50278;47.796;11.968;2023-05-07T09:47:23;2.17;;;1.98;;
64031;SDS011;50278;47.796;11.968;2023-05-07T09:49:55;1.63;;;1.48;;
64031;SDS011;50278;47.796;11.968;2023-05-07T09:52:25;2.20;;;1.70;;
64031;SDS011;50278;47.796;11.968;2023-05-07T09:54:55;2.92;;;1.90;;
64031;SDS011;50278;47.796;11.968;2023-05-07T09:57:26;2.65;;;1.77;;
64031;SDS011;50278;47.796;11.968;2023-05-07T09:59:57;1.73;;;1.50;;
64031;SDS011;50278;47.796;11.968;2023-05-07T10:02:27;4.38;;;1.40;;
64031;SDS011;50278;47.796;11.968;2023-05-07T10:04:55;2.92;;;1.70;;
64031;SDS011;50278;47.796;11.968;2023-05-07T10:07:28;2.05;;;1.25;;
64031;SDS011;50278;47.796;11.968;2023-05-07T10:09:58;2.33;;;1.73;;
64031;SDS011;50278;47.796;11.968;2023-05-07T10:12:33;4.38;;;1.75;;
64031;SDS011;50278;47.796;11.968;2023-05-07T10:15:06;3.00;;;1.55;;
64031;SDS011;50278;47.796;11.968;2023-05-07T10:17:37;10.93;;;2.17;;
64031;SDS011;50278;47.796;11.968;2023-05-07T10:20:04;2.65;;;1.73;;
64031;SDS011;50278;47.796;11.968;2023-05-07T10:22:32;2.28;;;1.70;;
64031;SDS011;50278;47.796;11.968;2023-05-07T10:25:03;1.75;;;1.45;;
64031;SDS011;50278;47.796;11.968;2023-05-07T10:27:34;4.00;;;1.63;;
64031;SDS011;50278;47.796;11.968;2023-05-07T10:32:51;2.95;;;1.77;;
64031;SDS011;50278;47.796;11.968;2023-05-07T10:35:26;1.85;;;1.30;;
64031;SDS011;50278;47.796;11.968;2023-05-07T10:37:58;1.58;;;1.10;;
64031;SDS011;50278;47.796;11.968;2023-05-07T10:40:26;2.00;;;1.50;;
64031;SDS011;50278;47.796;11.968;2023-05-07T10:42:53;3.05;;;1.70;;
64031;SDS011;50278;47.796;11.968;2023-05-07T10:48:10;2.22;;;1.23;;
64031;SDS011;50278;47.796;11.968;2023-05-07T10:50:42;1.10;;;0.88;;
64031;SDS011;50278;47.796;11.968;2023-05-07T10:58:47;2.72;;;1.20;;
64031;SDS011;50278;47.796;11.968;2023-05-07T11:04:47;1.75;;;0.85;;
64031;SDS011;50278;47.796;11.968;2023-05-07T11:07:44;3.58;;;0.73;;
64031;SDS011;50278;47.796;11.968;2023-05-07T11:10:20;1.27;;;0.75;;
64031;SDS011;50278;47.796;11.968;2023-05-07T11:13:09;2.92;;;1.17;;
64031;SDS011;50278;47.796;11.968;2023-05-07T11:15:44;1.48;;;1.00;;
64031;SDS011;50278;47.796;11.968;2023-05-07T11:21:10;1.73;;;1.13;;
64031;SDS011;50278;47.796;11.968;2023-05-07T11:26:26;2.10;;;0.80;;
64031;SDS011;50278;47.796;11.968;2023-05-07T11:28:53;2.30;;;0.88;;
64031;SDS011;50278;47.796;11.968;2023-05-07T11:31:21;3.45;;;1.08;;
64031;SDS011;50278;47.796;11.968;2023-05-07T11:33:49;2.90;;;1.00;;
64031;SDS011;50278;47.796;11.968;2023-05-07T11:36:18;1.90;;;1.00;;
64031;SDS011;50278;47.796;11.968;2023-05-07T11:38:47;4.78;;;0.93;;
64031;SDS011;50278;47.796;11.968;2023-05-07T11:41:12;1.98;;;0.93;;
64031;SDS011;50278;47.796;11.968;2023-05-07T11:43:40;1.52;;;0.70;;
64031;SDS011;50278;47.796;11.968;2023-05-07T11:46:20;1.38;;;0.90;;
64031;SDS011;50278;47.796;11.968;2023-05-07T11:48:45;2.30;;;1.10;;
64031;SDS011;50278;47.796;11.968;2023-05-07T11:51:11;5.70;;;1.10;;
64031;SDS011;50278;47.796;11.968;2023-05-07T11:53:39;1.50;;;0.90;;
64031;SDS011;50278;47.796;11.968;2023-05-07T11:56:13;2.38;;;0.93;;
64031;SDS011;50278;47.796;11.968;2023-05-07T11:58:40;3.03;;;1.00;;
64031;SDS011;50278;47.796;11.968;2023-05-07T12:01:09;1.48;;;1.10;;
64031;SDS011;50278;47.796;11.968;2023-05-07T12:03:36;1.80;;;0.90;;
64031;SDS011;50278;47.796;11.968;2023-05-07T12:06:05;2.90;;;0.93;;
64031;SDS011;50278;47.796;11.968;2023-05-07T12:08:31;3.03;;;1.10;;
64031;SDS011;50278;47.796;11.968;2023-05-07T12:10:57;2.70;;;1.05;;
64031;SDS011;50278;47.796;11.968;2023-05-07T12:13:24;2.55;;;1.00;;
64031;SDS011;50278;47.796;11.968;2023-05-07T12:15:55;1.05;;;0.80;;
64031;SDS011;50278;47.796;11.968;2023-05-07T12:18:22;1.50;;;0.90;;
64031;SDS011;50278;47.796;11.968;2023-05-07T12:20:48;2.45;;;1.10;;
64031;SDS011;50278;47.796;11.968;2023-05-07T12:23:15;3.70;;;1.10;;
64031;SDS011;50278;47.796;11.968;2023-05-07T12:25:41;1.83;;;1.02;;
64031;SDS011;50278;47.796;11.968;2023-05-07T12:30:43;1.35;;;0.90;;
64031;SDS011;50278;47.796;11.968;2023-05-07T12:33:10;1.33;;;0.85;;
64031;SDS011;50278;47.796;11.968;2023-05-07T12:35:36;2.75;;;1.10;;
64031;SDS011;50278;47.796;11.968;2023-05-07T12:38:16;2.78;;;0.73;;
64031;SDS011;50278;47.796;11.968;2023-05-07T12:43:24;2.28;;;0.93;;
64031;SDS011;50278;47.796;11.968;2023-05-07T12:45:52;2.63;;;1.10;;
64031;SDS011;50278;47.796;11.968;2023-05-07T12:48:20;1.98;;;1.15;;
64031;SDS011;50278;47.796;11.968;2023-05-07T12:50:49;2.78;;;1.00;;
64031;SDS011;50278;47.796;11.968;2023-05-07T12:53:16;2.40;;;1.20;;
64031;SDS011;50278;47.796;11.968;2023-05-07T12:55:46;1.48;;;0.98;;
64031;SDS011;50278;47.796;11.968;2023-05-07T12:58:36;1.60;;;1.15;;
64031;SDS011;50278;47.796;11.968;2023-05-07T13:01:04;2.53;;;1.10;;
64031;SDS011;50278;47.796;11.968;2023-05-07T13:03:32;3.40;;;1.25;;
64031;SDS011;50278;47.796;11.968;2023-05-07T13:05:59;2.33;;;0.93;;
64031;SDS011;50278;47.796;11.968;2023-05-07T13:08:46;2.45;;;1.00;;
64031;SDS011;50278;47.796;11.968;2023-05-07T13:11:12;3.55;;;1.00;;
64031;SDS011;50278;47.796;11.968;2023-05-07T13:13:38;1.38;;;0.90;;
64031;SDS011;50278;47.796;11.968;2023-05-07T13:16:08;2.10;;;0.82;;
64031;SDS011;50278;47.796;11.968;2023-05-07T13:18:34;2.13;;;1.00;;
64031;SDS011;50278;47.796;11.968;2023-05-07T13:21:02;1.80;;;0.80;;
64031;SDS011;50278;47.796;11.968;2023-05-07T13:23:28;5.10;;;1.35;;
64031;SDS011;50278;47.796;11.968;2023-05-07T13:25:53;1.90;;;0.90;;
64031;SDS011;50278;47.796;11.968;2023-05-07T13:28:20;1.92;;;0.95;;
64031;SDS011;50278;47.796;11.968;2023-05-07T13:30:46;1.77;;;1.13;;
64031;SDS011;50278;47.796;11.968;2023-05-07T13:33:19;1.58;;;1.05;;
64031;SDS011;50278;47.796;11.968;2023-05-07T13:35:45;7.18;;;1.52;;
64031;SDS011;50278;47.796;11.968;2023-05-07T13:38:10;2.58;;;1.23;;
64031;SDS011;50278;47.796;11.968;2023-05-07T13:40:36;2.67;;;0.98;;
64031;SDS011;50278;47.796;11.968;2023-05-07T13:43:01;2.78;;;1.08;;
64031;SDS011;50278;47.796;11.968;2023-05-07T13:45:30;1.67;;;0.90;;
64031;SDS011;50278;47.796;11.968;2023-05-07T13:47:56;2.38;;;1.02;;
64031;SDS011;50278;47.796;11.968;2023-05-07T13:50:22;1.45;;;0.90;;
64031;SDS011;50278;47.796;11.968;2023-05-07T13:52:48;2.28;;;0.88;;
64031;SDS011;50278;47.796;11.968;2023-05-07T13:55:19;3.55;;;1.10;;
64031;SDS011;50278;47.796;11.968;2023-05-07T13:57:46;1.88;;;0.90;;
64031;SDS011;50278;47.796;11.968;2023-05-07T14:00:12;1.55;;;1.05;;
64031;SDS011;50278;47.796;11.968;2023-05-07T14:02:41;3.85;;;1.20;;
64031;SDS011;50278;47.796;11.968;2023-05-07T14:05:07;2.38;;;1.10;;
64031;SDS011;50278;47.796;11.968;2023-05-07T14:07:34;2.25;;;1.05;;
64031;SDS011;50278;47.796;11.968;2023-05-07T14:09:59;1.70;;;0.93;;
64031;SDS011;50278;47.796;11.968;2023-05-07T14:12:25;7.78;;;1.77;;
64031;SDS011;50278;47.796;11.968;2023-05-07T14:14:55;4.85;;;1.92;;
64031;SDS011;50278;47.796;11.968;2023-05-07T14:17:21;2.22;;;1.30;;
64031;SDS011;50278;47.796;11.968;2023-05-07T14:19:48;1.52;;;1.30;;
64031;SDS011;50278;47.796;11.968;2023-05-07T14:22:14;3.88;;;1.40;;
64031;SDS011;50278;47.796;11.968;2023-05-07T14:24:40;2.63;;;1.67;;
64031;SDS011;50278;47.796;11.968;2023-05-07T14:27:06;2.40;;;1.65;;
64031;SDS011;50278;47.796;11.968;2023-05-07T14:29:31;2.13;;;1.60;;
64031;SDS011;50278;47.796;11.968;2023-05-07T14:31:57;1.52;;;1.20;;
64031;SDS011;50278;47.796;11.968;2023-05-07T14:34:22;3.95;;;1.75;;
64031;SDS011;50278;47.796;11.968;2023-05-07T14:36:49;2.40;;;1.58;;
64031;SDS011;50278;47.796;11.968;2023-05-07T14:39:19;3.55;;;1.58;;
64031;SDS011;50278;47.796;11.968;2023-05-07T14:41:45;2.80;;;1.80;;
64031;SDS011;50278;47.796;11.968;2023-05-07T14:44:10;2.88;;;1.60;;
64031;SDS011;50278;47.796;11.968;2023-05-07T14:46:36;2.55;;;1.73;;
64031;SDS011;50278;47.796;11.968;2023-05-07T14:49:02;2.00;;;1.90;;
64031;SDS011;50278;47.796;11.968;2023-05-07T14:51:28;4.47;;;2.03;;
64031;SDS011;50278;47.796;11.968;2023-05-07T14:53:53;1.95;;;1.63;;
64031;SDS011;50278;47.796;11.968;2023-05-07T14:56:19;3.17;;;1.50;;
64031;SDS011;50278;47.796;11.968;2023-05-07T14:58:46;2.45;;;1.65;;
64031;SDS011;50278;47.796;11.968;2023-05-07T15:01:13;2.00;;;1.80;;
64031;SDS011;50278;47.796;11.968;2023-05-07T15:03:38;3.10;;;1.75;;
64031;SDS011;50278;47.796;11.968;2023-05-07T15:06:04;1.88;;;1.40;;